Latest Weather Observations for Yunta

IDS60801

Issued at 10:02 am CDT Friday 24 November 2017 (issued every 30 minutes, with the page automatically refreshed every 10 minutes)

About weather observations | Map of weather stations | Latest weather observations for SA | Other Formats
Station Details ID: 020062 Name: YUNTA AIRSTRIP Lat: -32.57 Lon: 139.56 Height: 300.0 m
Data from the previous 72 hours. | See also: Recent months at Yunta
Date/Time
CDT
Temp
°C
App
Temp
°C
Dew
Point
°C
Rel
Hum
%
Delta-T
°C
Wind Press
QNH
hPa
Press
MSL
hPa
Rain since
9am
mm
Dir  Spd
km/h
Gust
km/h
Spd
kts
Gust
kts
24/10:00am 20.6 18.4 14.3 67 3.7 NE 19 30 10 16 1012.9 1011.8 0.0
24/09:30am 20.0 21.1 15.6 76 2.6 NE 4 9 2 5 1012.8 1011.7 0.0
24/09:00am 18.8 19.1 15.1 79 2.2 NE 7 11 4 6 1012.6 1011.5 18.8
24/08:30am 19.0 19.5 15.5 80 2.1 ENE 7 11 4 6 1012.3 1011.2 18.8
24/08:00am 17.9 18.3 15.2 84 1.6 ENE 7 11 4 6 1012.1 1011.0 18.8
24/07:30am 17.0 17.3 15.0 88 1.2 ENE 7 11 4 6 1012.0 1010.9 18.8
24/07:00am 17.3 18.0 14.4 83 1.7 SE 4 15 2 8 1012.0 1010.9 17.8
24/06:30am 17.3 17.8 14.0 81 1.9 NE 4 7 2 4 1011.8 1010.8 17.2
24/06:00am 17.5 16.6 13.8 79 2.1 NE 11 15 6 8 1011.3 1010.3 17.2
24/05:30am 18.2 16.1 13.5 74 2.7 NNE 17 24 9 13 1010.8 1009.7 17.2
24/05:00am 18.1 15.6 13.6 75 2.6 NNE 19 30 10 16 1010.2 1009.1 17.0
24/04:30am 17.1 17.2 14.0 82 1.8 NE 6 9 3 5 1009.8 1008.7 17.0
24/04:00am 16.5 17.8 14.2 86 1.3 CALM 0 4 0 2 1009.4 1008.3 17.0
24/03:30am 16.6 17.1 14.1 85 1.4 SE 4 7 2 4 1009.1 1008.0 17.0
24/03:00am 16.7 16.7 14.3 86 1.4 E 7 13 4 7 1009.0 1007.9 17.0
24/02:30am 16.9 16.2 14.4 85 1.5 ENE 11 15 6 8 1009.5 1008.4 17.0
24/02:00am 16.3 17.9 14.8 91 0.9 CALM 0 2 0 1 1009.9 1008.8 17.0
24/01:30am 16.2 16.6 14.7 91 0.9 SW 6 7 3 4 1010.2 1009.1 17.0
24/01:00am 16.3 17.5 14.8 91 0.9 SSE 2 6 1 3 1010.4 1009.3 17.0
24/12:30am 16.3 17.9 14.8 91 0.9 CALM 0 0 0 0 1010.6 1009.5 17.0
24/12:00am 16.4 17.2 14.8 90 0.9 ENE 4 6 2 3 1010.9 1009.8 17.0
 
Date/Time
CDT
Temp
°C
App
Temp
°C
Dew
Point
°C
Rel
Hum
%
Delta-T
°C
Wind Press
QNH
hPa
Press
MSL
hPa
Rain since
9am
mm
Dir  Spd
km/h
Gust
km/h
Spd
kts
Gust
kts
23/11:30pm 16.6 17.5 15.0 90 0.9 ENE 4 6 2 3 1011.3 1010.3 17.0
23/11:00pm 16.7 17.0 14.9 89 1.1 E 7 9 4 5 1011.1 1010.0 17.0
23/10:30pm 16.6 16.4 14.8 89 1.1 SE 9 17 5 9 1011.4 1010.4 17.0
23/10:00pm 16.8 16.8 15.2 90 0.9 SSE 9 17 5 9 1012.0 1010.9 16.0
23/09:30pm 17.2 18.2 15.4 89 1.1 WSW 4 7 2 4 1012.8 1011.7 12.8
23/09:00pm 17.6 17.3 15.4 87 1.3 W 11 15 6 8 1012.4 1011.3 9.4
23/08:30pm 18.2 18.7 15.6 85 1.6 S 7 9 4 5 1010.9 1009.8 7.8
23/08:00pm 18.5 18.8 15.0 80 2.1 SSE 7 9 4 5 1010.4 1009.3 7.8
23/07:30pm 18.9 19.4 15.0 78 2.3 S 6 9 3 5 1010.3 1009.2 7.8
23/07:00pm 18.8 19.7 15.1 79 2.2 NE 4 6 2 3 1009.9 1008.8 7.8
23/06:30pm 18.6 19.2 15.7 83 1.7 NNE 7 11 4 6 1009.8 1008.7 7.6
23/06:00pm 18.3 17.5 15.0 81 2.0 ENE 13 19 7 10 1009.4 1008.3 7.6
23/05:30pm 17.8 16.2 14.9 83 1.7 ENE 17 22 9 12 1009.6 1008.5 7.6
23/05:00pm 17.8 16.1 14.7 82 1.8 NE 17 22 9 12 1010.2 1009.1 7.2
23/04:30pm 17.6 15.4 14.5 82 1.8 NE 19 26 10 14 1009.4 1008.3 6.2
23/04:00pm 18.2 14.9 13.9 76 2.5 NNE 24 33 13 18 1009.8 1008.7 3.8
23/03:30pm 19.7 15.7 14.1 70 3.3 N 28 39 15 21 1010.0 1008.9 1.6
23/03:23pm 20.5 16.6 14.4 68 3.6 NNW 28 48 15 26 1010.0 1008.9 1.2
23/03:04pm 21.9 16.8 13.8 60 4.8 NNW 33 46 18 25 1008.9 1007.8 0.4
23/03:00pm 24.1 18.7 12.1 47 6.9 N 32 46 17 25 1008.7 1007.6 0.2
23/02:30pm 28.9 22.4 6.3 24 12.1 NNE 30 50 16 27 1007.2 1006.1 0.2
23/02:07pm 29.5 23.3 6.2 23 12.5 NE 28 48 15 26 1007.0 1005.9 0.2
23/02:00pm 30.3 25.3 8.1 25 12.3 ENE 24 39 13 21 1007.1 1006.0 0.2
23/01:30pm 29.3 23.2 6.7 24 12.2 NE 28 44 15 24 1008.0 1006.9 0.2
23/01:00pm 27.5 22.7 7.4 28 10.9 NE 22 35 12 19 1008.9 1007.8 0.2
23/12:30pm 27.3 22.2 9.2 32 10.1 NE 26 44 14 24 1009.2 1008.1 0.2
23/12:00pm 25.5 19.2 9.7 37 8.8 NE 33 44 18 24 1009.3 1008.2 0.2
23/11:30am 27.1 21.3 8.0 30 10.4 NE 28 39 15 21 1009.2 1008.1 0.2
23/11:00am 27.4 20.8 7.8 29 10.7 NE 32 43 17 23 1009.4 1008.3 0.2
23/10:30am 25.8 19.1 7.4 31 9.9 NE 32 50 17 27 1009.5 1008.4 0.0
23/10:29am 26.1 19.3 6.7 29 10.3 NE 32 50 17 27 1009.5 1008.4 0.0
23/10:00am 25.4 21.2 9.7 37 8.7 ENE 22 33 12 18 1009.5 1008.4 0.0
23/09:30am 23.6 22.0 13.8 54 5.8 ENE 15 20 8 11 1009.5 1008.4 0.0
23/09:00am 21.4 20.8 14.6 65 4.0 E 11 13 6 7 1009.6 1008.5 1.8
23/08:30am 20.6 20.6 15.2 71 3.2 E 9 13 5 7 1009.6 1008.5 1.8
23/08:00am 19.7 20.0 14.9 74 2.8 ESE 7 9 4 5 1009.7 1008.6 1.8
23/07:30am 19.7 20.7 15.4 76 2.6 NNW 4 7 2 4 1010.1 1009.0 1.8
23/07:00am 19.6 20.4 14.8 74 2.8 SSE 4 6 2 3 1009.6 1008.5 1.6
23/06:30am 19.5 18.7 13.9 70 3.3 NW 11 24 6 13 1009.7 1008.6 1.6
23/06:00am 20.4 18.2 12.1 59 4.7 ESE 15 20 8 11 1008.9 1007.8 1.6
23/05:30am 19.4 19.4 14.2 72 3.0 SSE 7 9 4 5 1009.1 1008.0 1.6
23/05:00am 18.9 19.7 14.8 77 2.4 WSW 4 6 2 3 1009.1 1008.0 1.6
23/04:30am 18.5 16.8 13.6 73 2.8 NNW 15 20 8 11 1009.1 1008.0 1.4
23/04:00am 20.4 17.5 12.4 60 4.6 NNW 19 30 10 16 1009.4 1008.3 0.2
23/03:30am 23.1 20.9 10.9 46 6.9 NNW 13 20 7 11 1009.3 1008.2 0.0
23/03:00am 22.1 21.3 10.9 49 6.3 NW 6 7 3 4 1008.7 1007.6 0.0
23/02:30am 22.0 21.3 11.4 51 6.0 ENE 6 7 3 4 1008.9 1007.8 0.0
23/02:00am 21.9 22.3 11.3 51 6.0 CALM 0 0 0 0 1009.1 1008.0 0.0
23/01:30am 22.0 21.7 11.4 51 6.0 E 4 4 2 2 1009.5 1008.4 0.0
23/01:00am 22.2 22.2 11.3 50 6.1 E 2 7 1 4 1009.9 1008.8 0.0
23/12:30am 22.7 21.0 11.1 48 6.5 WNW 11 19 6 10 1010.1 1009.0 0.0
23/12:00am 22.7 21.9 11.1 48 6.5 SSE 6 6 3 3 1010.1 1009.0 0.0
 
Date/Time
CDT
Temp
°C
App
Temp
°C
Dew
Point
°C
Rel
Hum
%
Delta-T
°C
Wind Press
QNH
hPa
Press
MSL
hPa
Rain since
9am
mm
Dir  Spd
km/h
Gust
km/h
Spd
kts
Gust
kts
22/11:30pm 22.8 22.0 10.9 47 6.7 S 6 7 3 4 1010.2 1009.1 0.0
22/11:00pm 23.4 22.0 10.8 45 7.1 SSE 9 15 5 8 1010.3 1009.2 0.0
22/10:30pm 24.3 22.8 10.6 42 7.7 SSW 9 11 5 6 1010.3 1009.2 0.0
22/10:00pm 24.7 22.3 10.2 40 8.1 WSW 13 17 7 9 1010.4 1009.3 0.0
22/09:30pm 25.1 24.0 9.8 38 8.5 WSW 6 9 3 5 1010.3 1009.2 0.0
22/09:00pm 25.4 23.9 9.3 36 8.9 WSW 7 9 4 5 1010.1 1009.0 0.0
22/08:30pm 25.7 23.5 9.5 36 9.0 SW 11 13 6 7 1009.8 1008.7 0.0
22/08:00pm 26.3 23.2 8.8 33 9.6 SW 15 20 8 11 1009.8 1008.7 0.0
22/07:30pm 26.8 22.9 8.7 32 10.0 SW 19 24 10 13 1009.6 1008.5 0.0
22/07:00pm 26.9 22.5 8.8 32 10.0 WSW 22 28 12 15 1009.2 1008.1 0.0
22/06:30pm 27.2 20.8 9.5 33 9.9 WSW 33 44 18 24 1008.8 1007.7 0.0
22/06:14pm 27.8 22.0 9.6 32 10.2 WSW 30 43 16 23 1008.5 1007.4 0.0
22/06:00pm 31.7 27.0 1.0 14 15.3 N 15 22 8 12 1008.5 1007.4 0.0
22/05:30pm 32.0 26.0 1.2 14 15.5 N 22 33 12 18 1008.1 1007.0 0.0
22/05:00pm 32.8 27.5 1.8 14 15.8 N 19 26 10 14 1008.0 1006.9 0.0
22/04:30pm 33.5 28.1 1.3 13 16.3 N 19 32 10 17 1008.1 1007.0 0.0
22/04:00pm 33.3 27.1 2.2 14 16.0 NNE 24 35 13 19 1008.3 1007.2 0.0
22/03:30pm 33.5 29.4 2.4 14 16.1 NNE 13 28 7 15 1008.9 1007.8 0.0
22/03:00pm 32.9 27.6 1.9 14 15.8 N 19 33 10 18 1009.2 1008.1 0.0
22/02:30pm 32.6 28.6 2.6 15 15.5 NE 13 30 7 16 1009.6 1008.5 0.0
22/02:00pm 32.5 28.1 2.5 15 15.4 N 15 32 8 17 1010.3 1009.2 0.0
22/01:30pm 32.3 26.8 4.2 17 14.8 NNW 22 35 12 19 1010.9 1009.8 0.0
22/01:00pm 30.9 27.6 4.6 19 13.8 N 11 28 6 15 1011.4 1010.4 0.0
22/12:30pm 33.0 29.0 4.7 17 15.1 N 15 32 8 17 1012.0 1010.9 0.0
22/12:00pm 32.1 26.4 3.1 16 15.0 NNE 22 33 12 18 1012.4 1011.3 0.0
22/11:30am 31.7 25.9 4.5 18 14.4 N 24 39 13 21 1012.7 1011.6 0.0
22/11:00am 31.4 25.7 5.0 19 14.0 N 24 37 13 20 1013.0 1011.9 0.0
22/10:30am 30.2 23.7 4.8 20 13.4 N 28 39 15 21 1013.3 1012.2 0.0
22/10:00am 29.3 22.6 5.4 22 12.6 N 30 41 16 22 1013.4 1012.3 0.0
22/09:30am 28.5 21.2 4.7 22 12.4 N 32 43 17 23 1013.6 1012.5 0.0
22/09:00am 28.0 20.5 4.3 22 12.2 N 33 43 18 23 1013.6 1012.5 0.0
22/08:30am 27.2 19.7 3.7 22 11.9 N 32 46 17 25 1013.5 1012.4 0.0
22/08:00am 26.6 19.9 3.8 23 11.5 NNE 28 41 15 22 1013.3 1012.2 0.0
22/07:30am 25.9 18.5 3.8 24 11.1 NNE 32 48 17 26 1013.1 1012.0 0.0
22/07:00am 25.2 17.8 3.8 25 10.7 NNE 32 48 17 26 1012.9 1011.8 0.0
22/06:30am 24.6 17.2 3.8 26 10.4 NNE 32 46 17 25 1012.6 1011.5 0.0
22/06:00am 24.5 16.9 3.8 26 10.3 NNE 33 46 18 25 1012.3 1011.2 0.0
22/05:44am 24.6 17.2 3.8 26 10.4 NNE 32 50 17 27 1012.2 1011.1 0.0
22/05:30am 24.9 17.9 4.1 26 10.5 NNE 30 46 16 25 1012.0 1010.9 0.0
22/05:17am 25.3 18.7 4.4 26 10.6 NNE 28 43 15 23 1012.0 1010.9 0.0
22/05:00am 22.4 17.4 3.5 29 9.2 ENE 19 24 10 13 1011.8 1010.8 0.0
22/04:30am 22.4 17.3 3.0 28 9.4 ENE 19 24 10 13 1011.7 1010.7 0.0
22/04:00am 21.6 17.1 2.3 28 9.2 ENE 15 20 8 11 1011.7 1010.7 0.0
22/03:30am 23.4 18.5 2.3 25 10.2 ENE 17 20 9 11 1011.6 1010.6 0.0
22/03:00am 26.0 19.9 2.7 22 11.5 NE 24 35 13 19 1011.6 1010.6 0.0
22/02:30am 23.5 18.6 1.8 24 10.4 ENE 17 22 9 12 1011.8 1010.8 0.0
22/02:00am 22.0 17.4 1.6 26 9.6 ENE 15 20 8 11 1012.1 1011.0 0.0
22/01:30am 21.9 17.6 1.0 25 9.7 NE 13 19 7 10 1012.4 1011.3 0.0
22/01:00am 22.3 18.0 0.8 24 10.0 ENE 13 15 7 8 1012.5 1011.4 0.0
22/12:30am 22.8 18.4 0.6 23 10.3 ENE 13 15 7 8 1012.7 1011.6 0.0
22/12:00am 23.1 19.2 0.9 23 10.4 NE 11 15 6 8 1012.8 1011.7 0.0
 
Date/Time
CDT
Temp
°C
App
Temp
°C
Dew
Point
°C
Rel
Hum
%
Delta-T
°C
Wind Press
QNH
hPa
Press
MSL
hPa
Rain since
9am
mm
Dir  Spd
km/h
Gust
km/h
Spd
kts
Gust
kts
21/11:30pm 22.3 18.5 1.9 26 9.7 ENE 11 13 6 7 1013.1 1012.0 0.0
21/11:00pm 23.3 19.8 1.0 23 10.5 ENE 9 13 5 7 1013.1 1012.0 0.0
21/10:30pm 23.9 20.1 1.5 23 10.7 NE 11 13 6 7 1013.1 1012.0 0.0
21/10:00pm 24.4 20.9 1.3 22 11.0 ENE 9 13 5 7 1013.1 1012.0 0.0
21/09:30pm 25.5 21.6 0.9 20 11.7 NE 11 11 6 6 1012.8 1011.7 0.0
21/09:00pm 27.4 23.1 1.0 18 12.8 NE 13 17 7 9 1012.6 1011.5 0.0
21/08:30pm 28.5 24.2 1.1 17 13.4 NE 13 15 7 8 1012.4 1011.3 0.0
21/08:00pm 29.9 25.1 0.5 15 14.3 NE 15 24 8 13 1012.2 1011.1 0.0
21/07:30pm 30.9 25.7 0.3 14 15.0 NE 17 26 9 14 1012.0 1010.9 0.0
21/07:00pm 31.8 26.0 0.0 13 15.6 ENE 20 30 11 16 1011.6 1010.6 0.0
21/06:30pm 32.2 26.1 0.3 13 15.8 ENE 22 33 12 18 1011.5 1010.5 0.0
21/06:00pm 32.6 26.9 0.6 13 15.9 NE 20 35 11 19 1011.4 1010.4 0.0
21/05:30pm 32.9 26.9 0.9 13 16.1 NE 22 35 12 19 1011.6 1010.6 0.0
21/05:00pm 32.8 26.2 -0.3 12 16.3 NE 24 37 13 20 1011.8 1010.8 0.0
21/04:30pm 32.9 26.3 -0.2 12 16.3 NNE 24 37 13 20 1012.1 1011.0 0.0
21/04:00pm 32.7 26.5 -0.4 12 16.2 NE 22 35 12 19 1012.3 1011.2 0.0
21/03:30pm 32.4 25.4 -0.6 12 16.1 NNE 26 37 14 20 1012.6 1011.5 0.0
21/03:00pm 32.5 25.7 -1.7 11 16.4 NNE 24 37 13 20 1012.9 1011.8 0.0
21/02:30pm 32.0 25.3 -0.9 12 15.9 NE 24 41 13 22 1013.4 1012.3 0.0
21/02:00pm 31.9 26.0 -1.0 12 15.9 NE 20 33 11 18 1013.7 1012.6 0.0
21/01:30pm 31.9 26.3 0.1 13 15.6 NE 19 32 10 17 1014.1 1013.0 0.0
21/01:00pm 31.4 25.0 0.7 14 15.2 ENE 24 37 13 20 1014.7 1013.7 0.0
21/12:30pm 30.7 25.1 0.2 14 14.9 NNE 19 33 10 18 1015.1 1014.1 0.0
21/12:00pm 30.8 25.2 0.2 14 14.9 ENE 19 32 10 17 1015.6 1014.5 0.0
21/11:30am 30.9 25.2 3.0 17 14.3 ENE 22 39 12 21 1015.8 1014.7 0.0
21/11:00am 30.1 24.1 3.2 18 13.8 NE 24 39 13 21 1016.1 1015.0 0.0
21/10:30am 29.4 22.9 2.6 18 13.5 NNE 26 44 14 24 1016.4 1015.3 0.0
21/10:18am 29.2 22.4 3.2 19 13.2 NNE 28 46 15 25 1016.3 1015.2 0.0

Other Formats:

Comma delimited format used in spreadsheet applications
http://www.bom.gov.au/fwo/IDS60801/IDS60801.94684.axf

JavaScript Object Notation format (JSON) in row-major order
http://www.bom.gov.au/fwo/IDS60801/IDS60801.94684.json